No es requerida especial atención con respecto al clima.   -   No hay avisos meteorológicos

Informes METAR

 

LEZL - Sevilla, Spain
Distancia de la estación: ESE 25km
Actualización: 25/04/2018 08:00
Parcialmente nuboso
Parcialmente nuboso
 Viento de S
Viento: S 6 km/h
Temperatura: 14°C
Rocío: 13°C
Humedad: 94%
Barómetro: 1014 hPa
Nubes: Parcialmente nuboso
Visibilidad: 8 km
2018/04/25 06:00 LEZL 250600Z 19003KT 8000 NSC 14/13 Q1014 NOSIG
LEMO - Morón, Spain
Distancia de la estación: SE 65km
Actualización: 25/04/2018 08:00
Parcialmente nuboso
Parcialmente nuboso
 Viento de variable
Viento: variable 4 km/h
Temperatura: 14°C
Rocío: 13°C
Humedad: 94%
Barómetro: 1014 hPa
Nubes: Parcialmente nuboso
Visibilidad: 6 km
2018/04/25 06:00 LEMO 250600Z VRB02KT 6000 NSC 14/13 Q1014 NOSIG
LEJR - Jeréz, Spain
Distancia de la estación: S 87km
Actualización: 25/04/2018 08:00
Parcialmente nuboso
Parcialmente nuboso
 Viento de ENE
Viento: ENE 6 km/h
Temperatura: 14°C
Rocío: 13°C
Humedad: 94%
Barómetro: 1014 hPa
Nubes: Parcialmente nuboso
Visibilidad: 8 km
2018/04/25 06:00 LEJR 250600Z 07003KT 8000 NSC 14/13 Q1014
 
LERT - Rota, Spain
Distancia de la estación: S 101km
Actualización: 25/04/2018 08:00
Parcialmente nuboso
Parcialmente nuboso
 Viento de SE
Viento: SE 6 km/h
Temperatura: 16°C
Rocío: 15°C
Humedad: 94%
Barómetro: 1014 hPa
Nubes: Parcialmente nuboso
Visibilidad: 8 km
2018/04/25 06:00 LERT 250600Z 14003KT 8000 NSC 16/15 Q1014 NOSIG
LEMG - Málaga, Spain
Distancia de la estación: ESE 178km
Actualización: 25/04/2018 08:00
Poco nuboso
Poco nuboso
 Viento de calm
Viento: Calma
Temperatura: 15°C
Rocío: 14°C
Humedad: 94%
Barómetro: 1014 hPa
Nubes: Poco nuboso
Visibilidad: 10 km
Detalles de las nubes: Poco nuboso 914 m
2018/04/25 06:00 LEMG 250600Z 00000KT 9999 FEW030 15/14 Q1014 NOSIG
LEBA - Córdoba, Spain
Distancia de la estación: ENE 123km
Actualización: 25/04/2018 08:00
Despejado
Despejado
 Viento de ENE
Viento: ENE 6 km/h
Temperatura: 12°C
Rocío: 11°C
Humedad: 94%
Barómetro: 1015 hPa
Resumen: Despejado
Visibilidad: mayor de 10 km
2018/04/25 06:00 LEBA 250600Z 06003KT CAVOK 12/11 Q1015
 
LEGR - Granada, Spain
Distancia de la estación: E 215km
Actualización: 25/04/2018 08:00
Poco nuboso
Poco nuboso
 Viento de variable
Viento: variable 2 km/h
Temperatura: 13°C
Rocío: 10°C
Humedad: 82%
Barómetro: 1015 hPa
Nubes: Poco nuboso
Visibilidad: 10 km
Detalles de las nubes: Poco nuboso 2438 m
2018/04/25 06:00 LEGR 250600Z VRB01KT 9999 FEW080 13/10 Q1015
LEAM - Almería, Spain
Distancia de la estación: E 344km
Actualización: 25/04/2018 08:00
Lluvia, Muy nuboso
Lluvia, Muy nuboso
 Viento de E
Viento: E 11 km/h
Temperatura: 16°C
Rocío: 14°C
Humedad: 88%
Barómetro: 1014 hPa
Resumen: Lluvia
Nubes: Muy nuboso
Visibilidad: 7 km
Detalles de las nubes: Poco nuboso 914 m
Muy nuboso 1524 m
Muy nuboso 1829 m
2018/04/25 06:00 LEAM 250600Z 08006KT 050V110 7000 RA FEW030 BKN050 BKN060 16/14 Q1014
GCLP - Las Palmas/Aeropuerto, Spain
Distancia de la estación: SO 1410km
Actualización: 25/04/2018 08:00
Parcialmente nuboso
Parcialmente nuboso
 Viento de N
Viento: N 28 km/h
Temperatura: 18°C
Rocío: 13°C
Humedad: 73%
Barómetro: 1020 hPa
Nubes: Parcialmente nuboso
Visibilidad: 10 km
Detalles de las nubes: Parcialmente nuboso 1067 m
2018/04/25 06:00 GCLP 250600Z 35015KT 9999 SCT035 18/13 Q1020 NOSIG
 
LEMD - Madrid/Barajas, Spain
Distancia de la estación: NNE 402km
Actualización: 25/04/2018 08:00
Despejado
Despejado
 Viento de N
Viento: N 7 km/h
Temperatura: 12°C
Rocío: 10°C
Humedad: 88%
Barómetro: 1019 hPa
Resumen: Despejado
Visibilidad: mayor de 10 km
2018/04/25 06:00 LEMD 250600Z 36004KT CAVOK 12/10 Q1019 NOSIG
LEVD - Valladolid, Spain
Distancia de la estación: N 492km
Actualización: 25/04/2018 08:00
Despejado
Despejado
 Viento de E
Viento: E 9 km/h
Temperatura: 10°C
Sensación térmica: 9°C
Rocío: 8°C
Humedad: 88%
Barómetro: 1019 hPa
Resumen: Despejado
Visibilidad: mayor de 10 km
2018/04/25 06:00 LEVD 250600Z 09005KT CAVOK 10/08 Q1019
LEBL - Barcelona, Spain
Distancia de la estación: NE 816km
Actualización: 25/04/2018 08:00
Despejado
Despejado
 Viento de NNO
Viento: NNO 15 km/h
Temperatura: 16°C
Rocío: 11°C
Humedad: 72%
Barómetro: 1017 hPa
Resumen: Despejado
Visibilidad: mayor de 10 km
2018/04/25 06:00 LEBL 250600Z 33008KT 310V030 CAVOK 16/11 Q1017 NOSIG